sensor_id;sensor_type;location;lat;lon;timestamp;P1;durP1;ratioP1;P2;durP2;ratioP2
43676;SDS011;29275;48.800;18.102;2022-08-21T00:00:27;9.27;;;5.65;;
43676;SDS011;29275;48.800;18.102;2022-08-21T00:03:29;7.85;;;5.32;;
43676;SDS011;29275;48.800;18.102;2022-08-21T00:06:31;8.27;;;5.40;;
43676;SDS011;29275;48.800;18.102;2022-08-21T00:09:35;9.43;;;5.32;;
43676;SDS011;29275;48.800;18.102;2022-08-21T00:15:44;7.90;;;6.15;;
43676;SDS011;29275;48.800;18.102;2022-08-21T00:18:49;11.23;;;6.43;;
43676;SDS011;29275;48.800;18.102;2022-08-21T00:21:52;10.57;;;6.85;;
43676;SDS011;29275;48.800;18.102;2022-08-21T00:24:55;9.27;;;5.80;;
43676;SDS011;29275;48.800;18.102;2022-08-21T00:27:57;8.88;;;5.95;;
43676;SDS011;29275;48.800;18.102;2022-08-21T00:30:59;8.77;;;6.28;;
43676;SDS011;29275;48.800;18.102;2022-08-21T00:34:01;8.88;;;5.82;;
43676;SDS011;29275;48.800;18.102;2022-08-21T00:37:04;10.52;;;6.22;;
43676;SDS011;29275;48.800;18.102;2022-08-21T00:40:11;6.90;;;5.80;;
43676;SDS011;29275;48.800;18.102;2022-08-21T00:43:18;9.73;;;6.05;;
43676;SDS011;29275;48.800;18.102;2022-08-21T00:46:22;14.93;;;6.38;;
43676;SDS011;29275;48.800;18.102;2022-08-21T00:49:28;9.88;;;6.78;;
43676;SDS011;29275;48.800;18.102;2022-08-21T00:52:31;11.88;;;6.70;;
43676;SDS011;29275;48.800;18.102;2022-08-21T00:55:34;9.25;;;6.25;;
43676;SDS011;29275;48.800;18.102;2022-08-21T00:58:40;12.68;;;6.20;;
43676;SDS011;29275;48.800;18.102;2022-08-21T01:01:44;14.00;;;7.20;;
43676;SDS011;29275;48.800;18.102;2022-08-21T01:04:46;12.02;;;6.82;;
43676;SDS011;29275;48.800;18.102;2022-08-21T01:07:52;12.80;;;7.73;;
43676;SDS011;29275;48.800;18.102;2022-08-21T01:10:55;11.18;;;7.75;;
43676;SDS011;29275;48.800;18.102;2022-08-21T01:14:01;14.35;;;7.30;;
43676;SDS011;29275;48.800;18.102;2022-08-21T01:17:03;11.40;;;7.93;;
43676;SDS011;29275;48.800;18.102;2022-08-21T01:20:07;17.00;;;8.30;;
43676;SDS011;29275;48.800;18.102;2022-08-21T01:23:10;12.30;;;8.25;;
43676;SDS011;29275;48.800;18.102;2022-08-21T01:26:17;14.35;;;7.82;;
43676;SDS011;29275;48.800;18.102;2022-08-21T01:32:45;13.57;;;8.13;;
43676;SDS011;29275;48.800;18.102;2022-08-21T01:35:47;15.65;;;8.32;;
43676;SDS011;29275;48.800;18.102;2022-08-21T01:38:49;14.40;;;8.70;;
43676;SDS011;29275;48.800;18.102;2022-08-21T01:41:52;11.38;;;7.82;;
43676;SDS011;29275;48.800;18.102;2022-08-21T01:44:54;15.38;;;8.52;;
43676;SDS011;29275;48.800;18.102;2022-08-21T01:47:56;14.43;;;8.00;;
43676;SDS011;29275;48.800;18.102;2022-08-21T01:50:58;12.88;;;9.25;;
43676;SDS011;29275;48.800;18.102;2022-08-21T01:54:01;13.70;;;8.10;;
43676;SDS011;29275;48.800;18.102;2022-08-21T01:57:03;10.60;;;7.75;;
43676;SDS011;29275;48.800;18.102;2022-08-21T02:00:07;13.85;;;7.40;;
43676;SDS011;29275;48.800;18.102;2022-08-21T02:03:12;11.80;;;8.63;;
43676;SDS011;29275;48.800;18.102;2022-08-21T02:06:36;13.07;;;8.38;;
43676;SDS011;29275;48.800;18.102;2022-08-21T02:09:46;13.27;;;9.60;;
43676;SDS011;29275;48.800;18.102;2022-08-21T02:12:48;16.92;;;9.02;;
43676;SDS011;29275;48.800;18.102;2022-08-21T02:15:51;10.55;;;6.88;;
43676;SDS011;29275;48.800;18.102;2022-08-21T02:18:53;9.07;;;7.18;;
43676;SDS011;29275;48.800;18.102;2022-08-21T02:21:58;13.50;;;7.40;;
43676;SDS011;29275;48.800;18.102;2022-08-21T02:25:01;13.77;;;6.60;;
43676;SDS011;29275;48.800;18.102;2022-08-21T02:28:04;10.48;;;6.65;;
43676;SDS011;29275;48.800;18.102;2022-08-21T02:31:09;9.83;;;7.17;;
43676;SDS011;29275;48.800;18.102;2022-08-21T02:34:12;11.55;;;6.20;;
43676;SDS011;29275;48.800;18.102;2022-08-21T02:37:14;11.32;;;7.30;;
43676;SDS011;29275;48.800;18.102;2022-08-21T02:40:16;10.23;;;6.05;;
43676;SDS011;29275;48.800;18.102;2022-08-21T02:43:20;13.75;;;6.32;;
43676;SDS011;29275;48.800;18.102;2022-08-21T02:46:23;14.15;;;6.03;;
43676;SDS011;29275;48.800;18.102;2022-08-21T02:49:25;8.90;;;5.75;;
43676;SDS011;29275;48.800;18.102;2022-08-21T02:52:27;9.15;;;5.95;;
43676;SDS011;29275;48.800;18.102;2022-08-21T02:55:29;8.05;;;5.60;;
43676;SDS011;29275;48.800;18.102;2022-08-21T02:58:40;12.07;;;5.53;;
43676;SDS011;29275;48.800;18.102;2022-08-21T03:01:45;12.20;;;6.47;;
43676;SDS011;29275;48.800;18.102;2022-08-21T03:04:47;12.15;;;6.43;;
43676;SDS011;29275;48.800;18.102;2022-08-21T03:07:49;9.77;;;5.18;;
43676;SDS011;29275;48.800;18.102;2022-08-21T03:10:52;8.43;;;4.85;;
43676;SDS011;29275;48.800;18.102;2022-08-21T03:13:56;8.25;;;5.53;;
43676;SDS011;29275;48.800;18.102;2022-08-21T03:16:58;11.20;;;5.70;;
43676;SDS011;29275;48.800;18.102;2022-08-21T03:20:02;10.77;;;5.85;;
43676;SDS011;29275;48.800;18.102;2022-08-21T03:23:06;9.73;;;5.93;;
43676;SDS011;29275;48.800;18.102;2022-08-21T03:26:17;9.02;;;5.80;;
43676;SDS011;29275;48.800;18.102;2022-08-21T03:29:20;10.52;;;5.65;;
43676;SDS011;29275;48.800;18.102;2022-08-21T03:32:21;9.60;;;5.38;;
43676;SDS011;29275;48.800;18.102;2022-08-21T03:35:24;9.88;;;5.63;;
43676;SDS011;29275;48.800;18.102;2022-08-21T03:38:30;10.18;;;5.57;;
43676;SDS011;29275;48.800;18.102;2022-08-21T03:41:33;9.05;;;5.35;;
43676;SDS011;29275;48.800;18.102;2022-08-21T03:44:35;8.27;;;5.80;;
43676;SDS011;29275;48.800;18.102;2022-08-21T03:47:38;8.43;;;5.32;;
43676;SDS011;29275;48.800;18.102;2022-08-21T03:50:41;10.27;;;6.10;;
43676;SDS011;29275;48.800;18.102;2022-08-21T03:53:45;8.88;;;6.30;;
43676;SDS011;29275;48.800;18.102;2022-08-21T03:56:49;10.27;;;6.50;;
43676;SDS011;29275;48.800;18.102;2022-08-21T03:59:52;10.75;;;6.13;;
43676;SDS011;29275;48.800;18.102;2022-08-21T04:02:54;11.63;;;6.25;;
43676;SDS011;29275;48.800;18.102;2022-08-21T04:06:00;8.82;;;6.00;;
43676;SDS011;29275;48.800;18.102;2022-08-21T04:09:02;9.45;;;5.95;;
43676;SDS011;29275;48.800;18.102;2022-08-21T04:12:05;11.18;;;6.15;;
43676;SDS011;29275;48.800;18.102;2022-08-21T04:15:07;13.68;;;6.03;;
43676;SDS011;29275;48.800;18.102;2022-08-21T04:18:12;8.27;;;4.63;;
43676;SDS011;29275;48.800;18.102;2022-08-21T04:21:14;6.95;;;5.22;;
43676;SDS011;29275;48.800;18.102;2022-08-21T04:24:17;7.47;;;5.22;;
43676;SDS011;29275;48.800;18.102;2022-08-21T04:27:21;9.50;;;5.22;;
43676;SDS011;29275;48.800;18.102;2022-08-21T04:30:23;9.35;;;5.40;;
43676;SDS011;29275;48.800;18.102;2022-08-21T04:33:31;7.03;;;4.63;;
43676;SDS011;29275;48.800;18.102;2022-08-21T04:36:36;8.57;;;4.43;;
43676;SDS011;29275;48.800;18.102;2022-08-21T04:39:38;5.43;;;3.05;;
43676;SDS011;29275;48.800;18.102;2022-08-21T04:42:41;5.45;;;3.20;;
43676;SDS011;29275;48.800;18.102;2022-08-21T04:45:46;4.38;;;2.95;;
43676;SDS011;29275;48.800;18.102;2022-08-21T04:48:50;4.53;;;2.97;;
43676;SDS011;29275;48.800;18.102;2022-08-21T04:51:58;4.70;;;2.65;;
43676;SDS011;29275;48.800;18.102;2022-08-21T04:55:01;3.33;;;2.20;;
43676;SDS011;29275;48.800;18.102;2022-08-21T04:58:07;2.95;;;1.73;;
43676;SDS011;29275;48.800;18.102;2022-08-21T05:01:13;3.70;;;1.90;;
43676;SDS011;29275;48.800;18.102;2022-08-21T05:04:18;3.25;;;1.95;;
43676;SDS011;29275;48.800;18.102;2022-08-21T05:07:23;4.40;;;2.38;;
43676;SDS011;29275;48.800;18.102;2022-08-21T05:10:45;4.90;;;2.53;;
43676;SDS011;29275;48.800;18.102;2022-08-21T05:13:48;4.78;;;2.70;;
43676;SDS011;29275;48.800;18.102;2022-08-21T05:16:57;3.70;;;1.98;;
43676;SDS011;29275;48.800;18.102;2022-08-21T05:20:01;3.33;;;1.70;;
43676;SDS011;29275;48.800;18.102;2022-08-21T05:23:12;4.05;;;1.02;;
43676;SDS011;29275;48.800;18.102;2022-08-21T05:26:15;1.33;;;0.73;;
43676;SDS011;29275;48.800;18.102;2022-08-21T05:29:19;2.28;;;0.63;;
43676;SDS011;29275;48.800;18.102;2022-08-21T05:32:23;2.67;;;0.95;;
43676;SDS011;29275;48.800;18.102;2022-08-21T05:35:26;1.40;;;0.60;;
43676;SDS011;29275;48.800;18.102;2022-08-21T05:38:29;1.00;;;0.52;;
43676;SDS011;29275;48.800;18.102;2022-08-21T05:41:31;1.08;;;0.50;;
43676;SDS011;29275;48.800;18.102;2022-08-21T05:44:34;1.13;;;0.50;;
43676;SDS011;29275;48.800;18.102;2022-08-21T05:47:37;0.60;;;0.30;;
43676;SDS011;29275;48.800;18.102;2022-08-21T05:50:39;1.92;;;0.38;;
43676;SDS011;29275;48.800;18.102;2022-08-21T05:53:44;0.75;;;0.35;;
43676;SDS011;29275;48.800;18.102;2022-08-21T05:56:55;0.60;;;0.30;;
43676;SDS011;29275;48.800;18.102;2022-08-21T05:59:57;0.20;;;0.17;;
43676;SDS011;29275;48.800;18.102;2022-08-21T06:03:00;3.50;;;0.30;;
43676;SDS011;29275;48.800;18.102;2022-08-21T06:06:02;0.50;;;0.30;;
43676;SDS011;29275;48.800;18.102;2022-08-21T06:09:06;0.68;;;0.38;;
43676;SDS011;29275;48.800;18.102;2022-08-21T06:12:09;0.20;;;0.20;;
43676;SDS011;29275;48.800;18.102;2022-08-21T06:15:13;0.30;;;0.20;;
43676;SDS011;29275;48.800;18.102;2022-08-21T06:18:16;0.47;;;0.20;;
43676;SDS011;29275;48.800;18.102;2022-08-21T06:21:19;0.22;;;0.20;;
43676;SDS011;29275;48.800;18.102;2022-08-21T06:24:23;0.57;;;0.30;;
43676;SDS011;29275;48.800;18.102;2022-08-21T06:27:25;0.95;;;0.30;;
43676;SDS011;29275;48.800;18.102;2022-08-21T06:30:34;0.20;;;0.20;;
43676;SDS011;29275;48.800;18.102;2022-08-21T06:33:37;0.98;;;0.20;;
43676;SDS011;29275;48.800;18.102;2022-08-21T06:36:41;0.73;;;0.30;;
43676;SDS011;29275;48.800;18.102;2022-08-21T06:39:43;1.48;;;0.10;;
43676;SDS011;29275;48.800;18.102;2022-08-21T06:42:50;2.28;;;0.28;;
43676;SDS011;29275;48.800;18.102;2022-08-21T06:45:52;0.52;;;0.30;;
43676;SDS011;29275;48.800;18.102;2022-08-21T06:48:55;0.20;;;0.13;;
43676;SDS011;29275;48.800;18.102;2022-08-21T06:51:58;1.05;;;0.20;;
43676;SDS011;29275;48.800;18.102;2022-08-21T06:55:02;0.20;;;0.20;;
43676;SDS011;29275;48.800;18.102;2022-08-21T06:58:06;1.10;;;0.20;;
43676;SDS011;29275;48.800;18.102;2022-08-21T07:01:09;0.20;;;0.20;;
43676;SDS011;29275;48.800;18.102;2022-08-21T07:04:12;0.20;;;0.20;;
43676;SDS011;29275;48.800;18.102;2022-08-21T07:07:14;1.25;;;0.20;;
43676;SDS011;29275;48.800;18.102;2022-08-21T07:10:16;0.77;;;0.30;;
43676;SDS011;29275;48.800;18.102;2022-08-21T07:16:25;0.20;;;0.15;;
43676;SDS011;29275;48.800;18.102;2022-08-21T07:19:27;0.10;;;0.10;;
43676;SDS011;29275;48.800;18.102;2022-08-21T07:22:29;0.10;;;0.10;;
43676;SDS011;29275;48.800;18.102;2022-08-21T07:25:32;0.20;;;0.20;;
43676;SDS011;29275;48.800;18.102;2022-08-21T07:28:37;2.85;;;0.25;;
43676;SDS011;29275;48.800;18.102;2022-08-21T07:31:40;1.17;;;0.30;;
43676;SDS011;29275;48.800;18.102;2022-08-21T07:34:45;0.45;;;0.20;;
43676;SDS011;29275;48.800;18.102;2022-08-21T07:37:48;0.40;;;0.20;;
43676;SDS011;29275;48.800;18.102;2022-08-21T07:40:56;0.20;;;0.20;;
43676;SDS011;29275;48.800;18.102;2022-08-21T07:44:01;0.38;;;0.20;;
43676;SDS011;29275;48.800;18.102;2022-08-21T07:47:04;0.50;;;0.30;;
43676;SDS011;29275;48.800;18.102;2022-08-21T07:50:06;0.50;;;0.30;;
43676;SDS011;29275;48.800;18.102;2022-08-21T07:53:17;0.30;;;0.20;;
43676;SDS011;29275;48.800;18.102;2022-08-21T07:56:20;0.65;;;0.47;;
43676;SDS011;29275;48.800;18.102;2022-08-21T07:59:22;0.50;;;0.30;;
43676;SDS011;29275;48.800;18.102;2022-08-21T08:02:25;2.45;;;0.32;;
43676;SDS011;29275;48.800;18.102;2022-08-21T08:05:30;0.88;;;0.40;;
43676;SDS011;29275;48.800;18.102;2022-08-21T08:08:33;1.10;;;0.45;;
43676;SDS011;29275;48.800;18.102;2022-08-21T08:11:36;1.00;;;0.50;;
43676;SDS011;29275;48.800;18.102;2022-08-21T08:14:40;1.65;;;0.90;;
43676;SDS011;29275;48.800;18.102;2022-08-21T08:17:43;0.80;;;0.55;;
43676;SDS011;29275;48.800;18.102;2022-08-21T08:20:45;2.05;;;0.73;;
43676;SDS011;29275;48.800;18.102;2022-08-21T08:23:51;1.87;;;1.03;;
43676;SDS011;29275;48.800;18.102;2022-08-21T08:26:54;1.80;;;0.90;;
43676;SDS011;29275;48.800;18.102;2022-08-21T08:29:59;1.60;;;0.80;;
43676;SDS011;29275;48.800;18.102;2022-08-21T08:33:01;2.20;;;1.17;;
43676;SDS011;29275;48.800;18.102;2022-08-21T08:36:04;1.65;;;1.10;;
43676;SDS011;29275;48.800;18.102;2022-08-21T08:39:08;3.92;;;1.15;;
43676;SDS011;29275;48.800;18.102;2022-08-21T08:42:17;1.75;;;1.13;;
43676;SDS011;29275;48.800;18.102;2022-08-21T08:45:36;3.90;;;1.15;;
43676;SDS011;29275;48.800;18.102;2022-08-21T08:51:55;3.42;;;1.10;;
43676;SDS011;29275;48.800;18.102;2022-08-21T08:58:18;1.60;;;0.98;;
43676;SDS011;29275;48.800;18.102;2022-08-21T09:01:25;3.05;;;0.95;;
43676;SDS011;29275;48.800;18.102;2022-08-21T09:04:29;2.42;;;1.17;;
43676;SDS011;29275;48.800;18.102;2022-08-21T09:07:45;1.77;;;1.10;;
43676;SDS011;29275;48.800;18.102;2022-08-21T09:14:25;2.78;;;1.40;;
43676;SDS011;29275;48.800;18.102;2022-08-21T09:27:52;5.13;;;1.20;;
43676;SDS011;29275;48.800;18.102;2022-08-21T09:30:55;1.95;;;1.00;;
43676;SDS011;29275;48.800;18.102;2022-08-21T09:34:01;1.88;;;1.30;;
43676;SDS011;29275;48.800;18.102;2022-08-21T09:37:05;5.00;;;1.50;;
43676;SDS011;29275;48.800;18.102;2022-08-21T09:43:34;2.40;;;1.23;;
43676;SDS011;29275;48.800;18.102;2022-08-21T09:46:36;1.85;;;1.13;;
43676;SDS011;29275;48.800;18.102;2022-08-21T09:49:40;4.40;;;1.42;;
43676;SDS011;29275;48.800;18.102;2022-08-21T09:52:48;2.00;;;1.35;;
43676;SDS011;29275;48.800;18.102;2022-08-21T09:55:53;1.92;;;1.15;;
43676;SDS011;29275;48.800;18.102;2022-08-21T09:59:18;2.45;;;1.42;;
43676;SDS011;29275;48.800;18.102;2022-08-21T10:05:29;2.60;;;1.60;;
43676;SDS011;29275;48.800;18.102;2022-08-21T10:08:32;2.58;;;1.30;;
43676;SDS011;29275;48.800;18.102;2022-08-21T10:11:36;2.78;;;1.52;;
43676;SDS011;29275;48.800;18.102;2022-08-21T10:18:07;2.03;;;1.42;;
43676;SDS011;29275;48.800;18.102;2022-08-21T10:31:18;2.17;;;1.35;;
43676;SDS011;29275;48.800;18.102;2022-08-21T10:34:33;2.78;;;1.20;;
43676;SDS011;29275;48.800;18.102;2022-08-21T10:47:24;2.00;;;1.20;;
43676;SDS011;29275;48.800;18.102;2022-08-21T10:57:14;2.38;;;1.58;;
43676;SDS011;29275;48.800;18.102;2022-08-21T11:00:33;3.42;;;1.70;;
43676;SDS011;29275;48.800;18.102;2022-08-21T11:03:43;5.20;;;1.75;;
43676;SDS011;29275;48.800;18.102;2022-08-21T11:06:49;2.40;;;1.53;;
43676;SDS011;29275;48.800;18.102;2022-08-21T11:10:02;4.38;;;1.77;;
43676;SDS011;29275;48.800;18.102;2022-08-21T11:13:15;4.22;;;1.98;;
43676;SDS011;29275;48.800;18.102;2022-08-21T11:16:42;2.40;;;1.80;;
43676;SDS011;29275;48.800;18.102;2022-08-21T11:19:50;2.22;;;1.75;;
43676;SDS011;29275;48.800;18.102;2022-08-21T11:23:12;3.65;;;1.98;;
43676;SDS011;29275;48.800;18.102;2022-08-21T11:26:22;2.85;;;1.92;;
43676;SDS011;29275;48.800;18.102;2022-08-21T11:29:31;4.18;;;1.80;;
43676;SDS011;29275;48.800;18.102;2022-08-21T11:39:33;2.88;;;1.75;;
43676;SDS011;29275;48.800;18.102;2022-08-21T11:43:04;2.00;;;1.35;;
43676;SDS011;29275;48.800;18.102;2022-08-21T11:57:00;2.50;;;1.60;;
43676;SDS011;29275;48.800;18.102;2022-08-21T12:00:13;1.55;;;1.15;;
43676;SDS011;29275;48.800;18.102;2022-08-21T12:06:29;2.80;;;1.05;;
43676;SDS011;29275;48.800;18.102;2022-08-21T12:09:53;1.90;;;1.30;;
43676;SDS011;29275;48.800;18.102;2022-08-21T12:13:05;4.55;;;1.00;;
43676;SDS011;29275;48.800;18.102;2022-08-21T12:16:11;2.75;;;1.13;;
43676;SDS011;29275;48.800;18.102;2022-08-21T12:22:39;1.63;;;0.90;;
43676;SDS011;29275;48.800;18.102;2022-08-21T12:25:44;1.30;;;0.77;;
43676;SDS011;29275;48.800;18.102;2022-08-21T12:28:50;1.77;;;0.68;;
43676;SDS011;29275;48.800;18.102;2022-08-21T12:31:58;0.63;;;0.43;;
43676;SDS011;29275;48.800;18.102;2022-08-21T12:35:09;1.13;;;0.50;;
43676;SDS011;29275;48.800;18.102;2022-08-21T12:38:29;1.88;;;0.50;;
43676;SDS011;29275;48.800;18.102;2022-08-21T12:41:44;1.35;;;0.52;;
43676;SDS011;29275;48.800;18.102;2022-08-21T12:44:55;0.63;;;0.40;;
43676;SDS011;29275;48.800;18.102;2022-08-21T12:48:07;0.80;;;0.40;;
43676;SDS011;29275;48.800;18.102;2022-08-21T12:51:17;0.90;;;0.50;;
43676;SDS011;29275;48.800;18.102;2022-08-21T12:54:25;1.73;;;0.40;;
43676;SDS011;29275;48.800;18.102;2022-08-21T12:57:32;0.70;;;0.40;;
43676;SDS011;29275;48.800;18.102;2022-08-21T13:00:44;1.20;;;0.40;;
43676;SDS011;29275;48.800;18.102;2022-08-21T13:03:52;0.52;;;0.30;;
43676;SDS011;29275;48.800;18.102;2022-08-21T13:07:06;0.40;;;0.20;;
43676;SDS011;29275;48.800;18.102;2022-08-21T13:10:24;1.15;;;0.40;;
43676;SDS011;29275;48.800;18.102;2022-08-21T13:13:28;0.90;;;0.40;;
43676;SDS011;29275;48.800;18.102;2022-08-21T13:16:33;0.60;;;0.40;;
43676;SDS011;29275;48.800;18.102;2022-08-21T13:19:36;0.68;;;0.43;;
43676;SDS011;29275;48.800;18.102;2022-08-21T13:22:40;0.63;;;0.40;;
43676;SDS011;29275;48.800;18.102;2022-08-21T13:25:44;0.65;;;0.38;;
43676;SDS011;29275;48.800;18.102;2022-08-21T13:28:47;0.68;;;0.28;;
43676;SDS011;29275;48.800;18.102;2022-08-21T13:31:52;0.35;;;0.20;;
43676;SDS011;29275;48.800;18.102;2022-08-21T13:34:56;0.80;;;0.30;;
43676;SDS011;29275;48.800;18.102;2022-08-21T13:37:59;0.30;;;0.30;;
43676;SDS011;29275;48.800;18.102;2022-08-21T13:41:05;0.30;;;0.20;;
43676;SDS011;29275;48.800;18.102;2022-08-21T13:47:21;0.20;;;0.20;;
43676;SDS011;29275;48.800;18.102;2022-08-21T13:50:24;0.90;;;0.20;;
43676;SDS011;29275;48.800;18.102;2022-08-21T13:53:33;0.13;;;0.10;;
43676;SDS011;29275;48.800;18.102;2022-08-21T13:56:42;0.25;;;0.20;;
43676;SDS011;29275;48.800;18.102;2022-08-21T13:59:46;0.45;;;0.20;;
43676;SDS011;29275;48.800;18.102;2022-08-21T14:02:52;0.20;;;0.20;;
43676;SDS011;29275;48.800;18.102;2022-08-21T14:05:56;0.10;;;0.10;;
43676;SDS011;29275;48.800;18.102;2022-08-21T14:09:07;1.23;;;0.22;;
43676;SDS011;29275;48.800;18.102;2022-08-21T14:12:32;2.30;;;0.20;;
43676;SDS011;29275;48.800;18.102;2022-08-21T14:15:54;1.15;;;0.30;;
43676;SDS011;29275;48.800;18.102;2022-08-21T14:25:27;0.30;;;0.20;;
43676;SDS011;29275;48.800;18.102;2022-08-21T14:28:41;0.20;;;0.10;;
43676;SDS011;29275;48.800;18.102;2022-08-21T14:31:48;0.20;;;0.20;;
43676;SDS011;29275;48.800;18.102;2022-08-21T14:34:57;0.75;;;0.20;;
43676;SDS011;29275;48.800;18.102;2022-08-21T14:38:00;0.17;;;0.10;;
43676;SDS011;29275;48.800;18.102;2022-08-21T14:44:35;0.63;;;0.20;;
43676;SDS011;29275;48.800;18.102;2022-08-21T14:47:38;0.95;;;0.47;;
43676;SDS011;29275;48.800;18.102;2022-08-21T14:50:40;0.47;;;0.20;;
43676;SDS011;29275;48.800;18.102;2022-08-21T14:53:42;0.73;;;0.30;;
43676;SDS011;29275;48.800;18.102;2022-08-21T14:56:45;0.30;;;0.20;;
43676;SDS011;29275;48.800;18.102;2022-08-21T14:59:48;0.50;;;0.20;;
43676;SDS011;29275;48.800;18.102;2022-08-21T15:02:51;1.80;;;0.20;;
43676;SDS011;29275;48.800;18.102;2022-08-21T15:05:53;0.38;;;0.20;;
43676;SDS011;29275;48.800;18.102;2022-08-21T15:08:56;0.40;;;0.20;;
43676;SDS011;29275;48.800;18.102;2022-08-21T15:11:58;0.20;;;0.17;;
43676;SDS011;29275;48.800;18.102;2022-08-21T15:15:06;1.05;;;0.20;;
43676;SDS011;29275;48.800;18.102;2022-08-21T15:18:10;2.20;;;0.35;;
43676;SDS011;29275;48.800;18.102;2022-08-21T15:21:13;0.30;;;0.20;;
43676;SDS011;29275;48.800;18.102;2022-08-21T15:24:21;0.90;;;0.30;;
43676;SDS011;29275;48.800;18.102;2022-08-21T15:27:24;0.60;;;0.13;;
43676;SDS011;29275;48.800;18.102;2022-08-21T15:30:29;0.50;;;0.20;;
43676;SDS011;29275;48.800;18.102;2022-08-21T15:33:31;1.30;;;0.30;;
43676;SDS011;29275;48.800;18.102;2022-08-21T15:36:34;0.50;;;0.30;;
43676;SDS011;29275;48.800;18.102;2022-08-21T15:39:36;4.75;;;0.75;;
43676;SDS011;29275;48.800;18.102;2022-08-21T15:42:43;0.15;;;0.10;;
43676;SDS011;29275;48.800;18.102;2022-08-21T15:45:45;2.88;;;0.20;;
43676;SDS011;29275;48.800;18.102;2022-08-21T15:48:47;0.40;;;0.22;;
43676;SDS011;29275;48.800;18.102;2022-08-21T15:51:50;0.55;;;0.30;;
43676;SDS011;29275;48.800;18.102;2022-08-21T15:54:52;0.65;;;0.28;;
43676;SDS011;29275;48.800;18.102;2022-08-21T15:57:55;0.15;;;0.15;;
43676;SDS011;29275;48.800;18.102;2022-08-21T16:01:02;0.65;;;0.10;;
43676;SDS011;29275;48.800;18.102;2022-08-21T16:04:05;1.10;;;0.30;;
43676;SDS011;29275;48.800;18.102;2022-08-21T16:07:07;0.77;;;0.13;;
43676;SDS011;29275;48.800;18.102;2022-08-21T16:10:15;3.00;;;0.20;;
43676;SDS011;29275;48.800;18.102;2022-08-21T16:13:25;1.75;;;0.20;;
43676;SDS011;29275;48.800;18.102;2022-08-21T16:16:30;3.58;;;0.30;;
43676;SDS011;29275;48.800;18.102;2022-08-21T16:19:36;0.70;;;0.30;;
43676;SDS011;29275;48.800;18.102;2022-08-21T16:22:42;1.50;;;0.30;;
43676;SDS011;29275;48.800;18.102;2022-08-21T16:25:45;0.10;;;0.10;;
43676;SDS011;29275;48.800;18.102;2022-08-21T16:28:49;0.43;;;0.25;;
43676;SDS011;29275;48.800;18.102;2022-08-21T16:31:52;0.60;;;0.30;;
43676;SDS011;29275;48.800;18.102;2022-08-21T16:34:55;0.32;;;0.20;;
43676;SDS011;29275;48.800;18.102;2022-08-21T16:37:58;0.13;;;0.10;;
43676;SDS011;29275;48.800;18.102;2022-08-21T16:41:01;0.70;;;0.20;;
43676;SDS011;29275;48.800;18.102;2022-08-21T16:44:06;0.32;;;0.20;;
43676;SDS011;29275;48.800;18.102;2022-08-21T16:47:11;0.20;;;0.10;;
43676;SDS011;29275;48.800;18.102;2022-08-21T16:50:27;0.73;;;0.20;;
43676;SDS011;29275;48.800;18.102;2022-08-21T16:53:30;0.40;;;0.30;;
43676;SDS011;29275;48.800;18.102;2022-08-21T16:56:32;0.20;;;0.10;;
43676;SDS011;29275;48.800;18.102;2022-08-21T16:59:39;0.95;;;0.20;;
43676;SDS011;29275;48.800;18.102;2022-08-21T17:02:44;2.75;;;0.20;;
43676;SDS011;29275;48.800;18.102;2022-08-21T17:05:48;0.52;;;0.17;;
43676;SDS011;29275;48.800;18.102;2022-08-21T17:08:51;0.20;;;0.10;;
43676;SDS011;29275;48.800;18.102;2022-08-21T17:11:54;2.63;;;0.20;;
43676;SDS011;29275;48.800;18.102;2022-08-21T17:15:04;0.40;;;0.20;;
43676;SDS011;29275;48.800;18.102;2022-08-21T17:18:11;0.50;;;0.20;;
43676;SDS011;29275;48.800;18.102;2022-08-21T17:21:15;0.38;;;0.10;;
43676;SDS011;29275;48.800;18.102;2022-08-21T17:24:19;1.70;;;0.40;;
43676;SDS011;29275;48.800;18.102;2022-08-21T17:27:22;1.23;;;0.40;;
43676;SDS011;29275;48.800;18.102;2022-08-21T17:30:27;2.25;;;0.57;;
43676;SDS011;29275;48.800;18.102;2022-08-21T17:33:30;0.63;;;0.47;;
43676;SDS011;29275;48.800;18.102;2022-08-21T17:36:35;1.60;;;0.47;;
43676;SDS011;29275;48.800;18.102;2022-08-21T17:39:38;0.80;;;0.30;;
43676;SDS011;29275;48.800;18.102;2022-08-21T17:42:40;1.42;;;0.50;;
43676;SDS011;29275;48.800;18.102;2022-08-21T17:45:44;0.73;;;0.40;;
43676;SDS011;29275;48.800;18.102;2022-08-21T17:48:47;2.00;;;0.70;;
43676;SDS011;29275;48.800;18.102;2022-08-21T17:51:50;0.68;;;0.40;;
43676;SDS011;29275;48.800;18.102;2022-08-21T17:54:53;0.70;;;0.30;;
43676;SDS011;29275;48.800;18.102;2022-08-21T17:57:56;1.00;;;0.30;;
43676;SDS011;29275;48.800;18.102;2022-08-21T18:01:00;0.32;;;0.20;;
43676;SDS011;29275;48.800;18.102;2022-08-21T18:04:07;0.10;;;0.10;;
43676;SDS011;29275;48.800;18.102;2022-08-21T18:07:11;0.57;;;0.17;;
43676;SDS011;29275;48.800;18.102;2022-08-21T18:10:32;0.73;;;0.20;;
43676;SDS011;29275;48.800;18.102;2022-08-21T18:13:36;0.30;;;0.10;;
43676;SDS011;29275;48.800;18.102;2022-08-21T18:16:41;0.20;;;0.10;;
43676;SDS011;29275;48.800;18.102;2022-08-21T18:19:43;0.10;;;0.10;;
43676;SDS011;29275;48.800;18.102;2022-08-21T18:22:49;2.50;;;0.40;;
43676;SDS011;29275;48.800;18.102;2022-08-21T18:25:54;0.13;;;0.10;;
43676;SDS011;29275;48.800;18.102;2022-08-21T18:28:57;1.85;;;0.45;;
43676;SDS011;29275;48.800;18.102;2022-08-21T18:32:02;0.98;;;0.20;;
43676;SDS011;29275;48.800;18.102;2022-08-21T18:35:25;1.27;;;0.20;;
43676;SDS011;29275;48.800;18.102;2022-08-21T18:38:28;0.52;;;0.20;;
43676;SDS011;29275;48.800;18.102;2022-08-21T18:41:32;1.27;;;0.45;;
43676;SDS011;29275;48.800;18.102;2022-08-21T18:44:35;0.65;;;0.40;;
43676;SDS011;29275;48.800;18.102;2022-08-21T18:47:40;0.30;;;0.30;;
43676;SDS011;29275;48.800;18.102;2022-08-21T18:50:49;1.35;;;0.38;;
43676;SDS011;29275;48.800;18.102;2022-08-21T18:53:51;4.40;;;0.90;;
43676;SDS011;29275;48.800;18.102;2022-08-21T18:56:56;1.50;;;0.57;;
43676;SDS011;29275;48.800;18.102;2022-08-21T18:59:58;2.40;;;0.68;;
43676;SDS011;29275;48.800;18.102;2022-08-21T19:03:08;0.63;;;0.45;;
43676;SDS011;29275;48.800;18.102;2022-08-21T19:06:12;0.80;;;0.43;;
43676;SDS011;29275;48.800;18.102;2022-08-21T19:09:20;1.08;;;0.50;;
43676;SDS011;29275;48.800;18.102;2022-08-21T19:12:24;0.90;;;0.30;;
43676;SDS011;29275;48.800;18.102;2022-08-21T19:15:32;0.60;;;0.30;;
43676;SDS011;29275;48.800;18.102;2022-08-21T19:18:37;0.77;;;0.32;;
43676;SDS011;29275;48.800;18.102;2022-08-21T19:21:42;1.27;;;0.40;;
43676;SDS011;29275;48.800;18.102;2022-08-21T19:24:49;0.93;;;0.50;;
43676;SDS011;29275;48.800;18.102;2022-08-21T19:27:53;1.67;;;0.50;;
43676;SDS011;29275;48.800;18.102;2022-08-21T19:31:15;0.82;;;0.40;;
43676;SDS011;29275;48.800;18.102;2022-08-21T19:37:28;0.55;;;0.38;;
43676;SDS011;29275;48.800;18.102;2022-08-21T19:40:30;0.98;;;0.43;;
43676;SDS011;29275;48.800;18.102;2022-08-21T19:43:33;0.63;;;0.32;;
43676;SDS011;29275;48.800;18.102;2022-08-21T19:46:42;1.00;;;0.43;;
43676;SDS011;29275;48.800;18.102;2022-08-21T19:49:49;1.70;;;0.40;;
43676;SDS011;29275;48.800;18.102;2022-08-21T19:52:55;0.50;;;0.30;;
43676;SDS011;29275;48.800;18.102;2022-08-21T19:56:00;0.90;;;0.30;;
43676;SDS011;29275;48.800;18.102;2022-08-21T19:59:03;0.73;;;0.30;;
43676;SDS011;29275;48.800;18.102;2022-08-21T20:02:26;0.90;;;0.70;;
43676;SDS011;29275;48.800;18.102;2022-08-21T20:05:29;0.70;;;0.30;;